sensor_id;sensor_type;location;lat;lon;timestamp;P1;durP1;ratioP1;P2;durP2;ratioP2
70126;SDS011;57491;42.694;23.314;2023-04-09T00:02:42;17.93;;;10.57;;
70126;SDS011;57491;42.694;23.314;2023-04-09T00:05:09;15.73;;;10.63;;
70126;SDS011;57491;42.694;23.314;2023-04-09T00:07:36;16.25;;;10.82;;
70126;SDS011;57491;42.694;23.314;2023-04-09T00:10:05;14.77;;;9.70;;
70126;SDS011;57491;42.694;23.314;2023-04-09T00:12:33;18.45;;;9.75;;
70126;SDS011;57491;42.694;23.314;2023-04-09T00:15:00;14.43;;;9.07;;
70126;SDS011;57491;42.694;23.314;2023-04-09T00:17:27;13.15;;;9.57;;
70126;SDS011;57491;42.694;23.314;2023-04-09T00:19:54;14.18;;;9.88;;
70126;SDS011;57491;42.694;23.314;2023-04-09T00:22:21;14.83;;;9.50;;
70126;SDS011;57491;42.694;23.314;2023-04-09T00:24:49;15.25;;;9.48;;
70126;SDS011;57491;42.694;23.314;2023-04-09T00:27:17;14.45;;;9.48;;
70126;SDS011;57491;42.694;23.314;2023-04-09T00:29:44;13.13;;;9.38;;
70126;SDS011;57491;42.694;23.314;2023-04-09T00:32:12;14.63;;;9.40;;
70126;SDS011;57491;42.694;23.314;2023-04-09T00:34:39;15.02;;;9.10;;
70126;SDS011;57491;42.694;23.314;2023-04-09T00:37:06;14.60;;;9.20;;
70126;SDS011;57491;42.694;23.314;2023-04-09T00:39:33;17.00;;;10.17;;
70126;SDS011;57491;42.694;23.314;2023-04-09T00:42:00;13.85;;;9.15;;
70126;SDS011;57491;42.694;23.314;2023-04-09T00:44:29;15.73;;;10.93;;
70126;SDS011;57491;42.694;23.314;2023-04-09T00:46:56;15.35;;;9.25;;
70126;SDS011;57491;42.694;23.314;2023-04-09T00:49:24;13.95;;;9.50;;
70126;SDS011;57491;42.694;23.314;2023-04-09T00:51:52;14.43;;;9.80;;
70126;SDS011;57491;42.694;23.314;2023-04-09T00:54:19;15.50;;;9.87;;
70126;SDS011;57491;42.694;23.314;2023-04-09T00:56:46;15.52;;;9.27;;
70126;SDS011;57491;42.694;23.314;2023-04-09T00:59:13;15.25;;;9.57;;
70126;SDS011;57491;42.694;23.314;2023-04-09T01:01:42;13.95;;;8.63;;
70126;SDS011;57491;42.694;23.314;2023-04-09T01:04:09;15.73;;;9.55;;
70126;SDS011;57491;42.694;23.314;2023-04-09T01:06:38;14.25;;;8.82;;
70126;SDS011;57491;42.694;23.314;2023-04-09T01:09:13;12.27;;;8.27;;
70126;SDS011;57491;42.694;23.314;2023-04-09T01:11:50;12.30;;;8.90;;
70126;SDS011;57491;42.694;23.314;2023-04-09T01:14:26;15.10;;;8.73;;
70126;SDS011;57491;42.694;23.314;2023-04-09T01:17:02;11.23;;;8.90;;
70126;SDS011;57491;42.694;23.314;2023-04-09T01:19:34;12.38;;;8.52;;
70126;SDS011;57491;42.694;23.314;2023-04-09T01:22:13;10.40;;;8.13;;
70126;SDS011;57491;42.694;23.314;2023-04-09T01:24:56;13.98;;;9.02;;
70126;SDS011;57491;42.694;23.314;2023-04-09T01:27:32;12.57;;;9.20;;
70126;SDS011;57491;42.694;23.314;2023-04-09T01:30:07;12.90;;;8.85;;
70126;SDS011;57491;42.694;23.314;2023-04-09T01:32:36;13.98;;;9.27;;
70126;SDS011;57491;42.694;23.314;2023-04-09T01:35:05;11.75;;;7.78;;
70126;SDS011;57491;42.694;23.314;2023-04-09T01:37:34;14.18;;;8.98;;
70126;SDS011;57491;42.694;23.314;2023-04-09T01:40:02;12.65;;;8.35;;
70126;SDS011;57491;42.694;23.314;2023-04-09T01:44:57;13.80;;;8.57;;
70126;SDS011;57491;42.694;23.314;2023-04-09T01:47:27;13.10;;;9.07;;
70126;SDS011;57491;42.694;23.314;2023-04-09T01:49:55;13.02;;;9.30;;
70126;SDS011;57491;42.694;23.314;2023-04-09T01:52:23;14.68;;;8.80;;
70126;SDS011;57491;42.694;23.314;2023-04-09T01:54:50;11.93;;;9.00;;
70126;SDS011;57491;42.694;23.314;2023-04-09T01:57:17;13.52;;;9.40;;
70126;SDS011;57491;42.694;23.314;2023-04-09T01:59:44;14.38;;;9.23;;
70126;SDS011;57491;42.694;23.314;2023-04-09T02:02:14;13.98;;;9.00;;
70126;SDS011;57491;42.694;23.314;2023-04-09T02:04:46;13.60;;;9.30;;
70126;SDS011;57491;42.694;23.314;2023-04-09T02:07:17;13.48;;;9.43;;
70126;SDS011;57491;42.694;23.314;2023-04-09T02:09:54;14.73;;;9.20;;
70126;SDS011;57491;42.694;23.314;2023-04-09T02:12:23;14.32;;;9.85;;
70126;SDS011;57491;42.694;23.314;2023-04-09T02:14:51;13.55;;;9.43;;
70126;SDS011;57491;42.694;23.314;2023-04-09T02:17:19;15.32;;;9.48;;
70126;SDS011;57491;42.694;23.314;2023-04-09T02:19:48;14.73;;;9.93;;
70126;SDS011;57491;42.694;23.314;2023-04-09T02:22:15;14.95;;;9.75;;
70126;SDS011;57491;42.694;23.314;2023-04-09T02:24:42;16.85;;;10.20;;
70126;SDS011;57491;42.694;23.314;2023-04-09T02:27:09;16.42;;;10.20;;
70126;SDS011;57491;42.694;23.314;2023-04-09T02:29:37;13.73;;;9.45;;
70126;SDS011;57491;42.694;23.314;2023-04-09T02:32:04;14.38;;;8.88;;
70126;SDS011;57491;42.694;23.314;2023-04-09T02:34:32;12.90;;;9.40;;
70126;SDS011;57491;42.694;23.314;2023-04-09T02:37:01;15.13;;;10.57;;
70126;SDS011;57491;42.694;23.314;2023-04-09T02:39:28;16.23;;;10.40;;
70126;SDS011;57491;42.694;23.314;2023-04-09T02:41:55;13.02;;;9.45;;
70126;SDS011;57491;42.694;23.314;2023-04-09T02:44:22;15.23;;;10.10;;
70126;SDS011;57491;42.694;23.314;2023-04-09T02:46:49;14.68;;;9.65;;
70126;SDS011;57491;42.694;23.314;2023-04-09T02:49:17;15.13;;;9.82;;
70126;SDS011;57491;42.694;23.314;2023-04-09T02:51:44;15.52;;;10.20;;
70126;SDS011;57491;42.694;23.314;2023-04-09T02:54:13;14.27;;;10.25;;
70126;SDS011;57491;42.694;23.314;2023-04-09T02:56:40;16.08;;;10.48;;
70126;SDS011;57491;42.694;23.314;2023-04-09T02:59:07;13.18;;;9.30;;
70126;SDS011;57491;42.694;23.314;2023-04-09T03:01:34;14.05;;;9.32;;
70126;SDS011;57491;42.694;23.314;2023-04-09T03:04:01;16.42;;;10.75;;
70126;SDS011;57491;42.694;23.314;2023-04-09T03:06:28;16.73;;;10.52;;
70126;SDS011;57491;42.694;23.314;2023-04-09T03:08:55;16.23;;;10.48;;
70126;SDS011;57491;42.694;23.314;2023-04-09T03:11:24;17.77;;;9.97;;
70126;SDS011;57491;42.694;23.314;2023-04-09T03:13:51;15.25;;;10.63;;
70126;SDS011;57491;42.694;23.314;2023-04-09T03:16:18;15.68;;;9.45;;
70126;SDS011;57491;42.694;23.314;2023-04-09T03:18:45;15.97;;;9.67;;
70126;SDS011;57491;42.694;23.314;2023-04-09T03:21:13;16.20;;;10.05;;
70126;SDS011;57491;42.694;23.314;2023-04-09T03:23:40;13.93;;;9.38;;
70126;SDS011;57491;42.694;23.314;2023-04-09T03:26:07;18.17;;;10.85;;
70126;SDS011;57491;42.694;23.314;2023-04-09T03:28:36;14.47;;;10.23;;
70126;SDS011;57491;42.694;23.314;2023-04-09T03:31:03;15.23;;;10.60;;
70126;SDS011;57491;42.694;23.314;2023-04-09T03:33:30;14.10;;;9.85;;
70126;SDS011;57491;42.694;23.314;2023-04-09T03:35:57;16.80;;;10.95;;
70126;SDS011;57491;42.694;23.314;2023-04-09T03:38:24;13.98;;;10.65;;
70126;SDS011;57491;42.694;23.314;2023-04-09T03:40:51;17.17;;;10.63;;
70126;SDS011;57491;42.694;23.314;2023-04-09T03:43:18;15.07;;;11.00;;
70126;SDS011;57491;42.694;23.314;2023-04-09T03:48:14;15.57;;;9.38;;
70126;SDS011;57491;42.694;23.314;2023-04-09T03:50:41;16.83;;;11.15;;
70126;SDS011;57491;42.694;23.314;2023-04-09T03:53:08;16.20;;;10.70;;
70126;SDS011;57491;42.694;23.314;2023-04-09T03:55:36;18.73;;;11.65;;
70126;SDS011;57491;42.694;23.314;2023-04-09T03:58:03;18.23;;;10.70;;
70126;SDS011;57491;42.694;23.314;2023-04-09T04:00:30;18.88;;;12.38;;
70126;SDS011;57491;42.694;23.314;2023-04-09T04:02:58;17.43;;;11.00;;
70126;SDS011;57491;42.694;23.314;2023-04-09T04:05:25;20.00;;;11.20;;
70126;SDS011;57491;42.694;23.314;2023-04-09T04:07:52;22.13;;;11.75;;
70126;SDS011;57491;42.694;23.314;2023-04-09T04:10:19;20.48;;;11.18;;
70126;SDS011;57491;42.694;23.314;2023-04-09T04:12:46;18.35;;;11.00;;
70126;SDS011;57491;42.694;23.314;2023-04-09T04:15:13;20.45;;;12.00;;
70126;SDS011;57491;42.694;23.314;2023-04-09T04:17:40;17.85;;;11.65;;
70126;SDS011;57491;42.694;23.314;2023-04-09T04:20:10;17.70;;;11.33;;
70126;SDS011;57491;42.694;23.314;2023-04-09T04:22:37;20.13;;;11.55;;
70126;SDS011;57491;42.694;23.314;2023-04-09T04:25:04;18.23;;;12.48;;
70126;SDS011;57491;42.694;23.314;2023-04-09T04:27:32;19.98;;;12.23;;
70126;SDS011;57491;42.694;23.314;2023-04-09T04:29:59;21.13;;;12.52;;
70126;SDS011;57491;42.694;23.314;2023-04-09T04:32:26;20.92;;;12.80;;
70126;SDS011;57491;42.694;23.314;2023-04-09T04:34:53;20.35;;;12.77;;
70126;SDS011;57491;42.694;23.314;2023-04-09T04:37:22;22.27;;;12.17;;
70126;SDS011;57491;42.694;23.314;2023-04-09T04:39:49;20.58;;;12.57;;
70126;SDS011;57491;42.694;23.314;2023-04-09T04:42:16;21.90;;;12.90;;
70126;SDS011;57491;42.694;23.314;2023-04-09T04:44:43;23.27;;;13.27;;
70126;SDS011;57491;42.694;23.314;2023-04-09T04:47:10;19.08;;;11.88;;
70126;SDS011;57491;42.694;23.314;2023-04-09T04:49:37;19.42;;;13.10;;
70126;SDS011;57491;42.694;23.314;2023-04-09T04:52:04;22.23;;;12.50;;
70126;SDS011;57491;42.694;23.314;2023-04-09T04:54:33;21.95;;;12.73;;
70126;SDS011;57491;42.694;23.314;2023-04-09T04:57:00;22.80;;;13.60;;
70126;SDS011;57491;42.694;23.314;2023-04-09T04:59:27;22.77;;;13.35;;
70126;SDS011;57491;42.694;23.314;2023-04-09T05:01:55;28.10;;;13.80;;
70126;SDS011;57491;42.694;23.314;2023-04-09T05:04:22;20.20;;;12.00;;
70126;SDS011;57491;42.694;23.314;2023-04-09T05:06:49;25.50;;;14.50;;
70126;SDS011;57491;42.694;23.314;2023-04-09T05:09:16;20.70;;;12.57;;
70126;SDS011;57491;42.694;23.314;2023-04-09T05:11:44;21.60;;;13.17;;
70126;SDS011;57491;42.694;23.314;2023-04-09T05:14:11;21.80;;;12.73;;
70126;SDS011;57491;42.694;23.314;2023-04-09T05:16:39;21.10;;;13.10;;
70126;SDS011;57491;42.694;23.314;2023-04-09T05:19:06;23.17;;;12.97;;
70126;SDS011;57491;42.694;23.314;2023-04-09T05:21:33;23.35;;;14.05;;
70126;SDS011;57491;42.694;23.314;2023-04-09T05:24:00;23.30;;;14.88;;
70126;SDS011;57491;42.694;23.314;2023-04-09T05:26:27;22.83;;;14.00;;
70126;SDS011;57491;42.694;23.314;2023-04-09T05:28:55;25.60;;;14.13;;
70126;SDS011;57491;42.694;23.314;2023-04-09T05:31:22;21.20;;;13.57;;
70126;SDS011;57491;42.694;23.314;2023-04-09T05:33:49;21.80;;;13.52;;
70126;SDS011;57491;42.694;23.314;2023-04-09T05:36:17;23.17;;;13.85;;
70126;SDS011;57491;42.694;23.314;2023-04-09T05:38:45;23.00;;;12.73;;
70126;SDS011;57491;42.694;23.314;2023-04-09T05:41:13;21.15;;;12.07;;
70126;SDS011;57491;42.694;23.314;2023-04-09T05:43:40;23.20;;;13.65;;
70126;SDS011;57491;42.694;23.314;2023-04-09T05:46:09;21.63;;;12.90;;
70126;SDS011;57491;42.694;23.314;2023-04-09T05:48:36;22.55;;;12.07;;
70126;SDS011;57491;42.694;23.314;2023-04-09T05:51:03;22.20;;;12.98;;
70126;SDS011;57491;42.694;23.314;2023-04-09T05:53:30;22.52;;;12.88;;
70126;SDS011;57491;42.694;23.314;2023-04-09T05:55:58;23.52;;;12.90;;
70126;SDS011;57491;42.694;23.314;2023-04-09T05:58:25;20.52;;;12.50;;
70126;SDS011;57491;42.694;23.314;2023-04-09T06:00:54;24.23;;;12.70;;
70126;SDS011;57491;42.694;23.314;2023-04-09T06:03:23;21.77;;;12.63;;
70126;SDS011;57491;42.694;23.314;2023-04-09T06:05:50;20.67;;;12.13;;
70126;SDS011;57491;42.694;23.314;2023-04-09T06:08:17;20.50;;;12.57;;
70126;SDS011;57491;42.694;23.314;2023-04-09T06:10:44;23.05;;;13.00;;
70126;SDS011;57491;42.694;23.314;2023-04-09T06:13:11;24.73;;;12.30;;
70126;SDS011;57491;42.694;23.314;2023-04-09T06:15:38;17.10;;;10.77;;
70126;SDS011;57491;42.694;23.314;2023-04-09T06:18:05;19.13;;;11.05;;
70126;SDS011;57491;42.694;23.314;2023-04-09T06:20:33;19.63;;;11.70;;
70126;SDS011;57491;42.694;23.314;2023-04-09T06:23:00;18.70;;;11.00;;
70126;SDS011;57491;42.694;23.314;2023-04-09T06:25:27;25.00;;;12.60;;
70126;SDS011;57491;42.694;23.314;2023-04-09T06:27:54;19.10;;;11.27;;
70126;SDS011;57491;42.694;23.314;2023-04-09T06:30:22;18.33;;;11.73;;
70126;SDS011;57491;42.694;23.314;2023-04-09T06:32:49;17.00;;;10.73;;
70126;SDS011;57491;42.694;23.314;2023-04-09T06:35:16;16.83;;;10.73;;
70126;SDS011;57491;42.694;23.314;2023-04-09T06:37:45;19.02;;;11.23;;
70126;SDS011;57491;42.694;23.314;2023-04-09T06:40:13;17.20;;;11.00;;
70126;SDS011;57491;42.694;23.314;2023-04-09T06:42:40;18.55;;;11.80;;
70126;SDS011;57491;42.694;23.314;2023-04-09T06:45:07;17.83;;;11.95;;
70126;SDS011;57491;42.694;23.314;2023-04-09T06:47:35;15.40;;;10.57;;
70126;SDS011;57491;42.694;23.314;2023-04-09T06:50:02;18.27;;;11.88;;
70126;SDS011;57491;42.694;23.314;2023-04-09T06:52:30;17.05;;;10.68;;
70126;SDS011;57491;42.694;23.314;2023-04-09T06:54:58;16.60;;;11.80;;
70126;SDS011;57491;42.694;23.314;2023-04-09T06:57:27;15.88;;;10.50;;
70126;SDS011;57491;42.694;23.314;2023-04-09T06:59:55;22.25;;;12.27;;
70126;SDS011;57491;42.694;23.314;2023-04-09T07:02:22;15.10;;;10.07;;
70126;SDS011;57491;42.694;23.314;2023-04-09T07:04:49;13.63;;;9.63;;
70126;SDS011;57491;42.694;23.314;2023-04-09T07:07:16;13.48;;;9.48;;
70126;SDS011;57491;42.694;23.314;2023-04-09T07:09:43;17.03;;;10.40;;
70126;SDS011;57491;42.694;23.314;2023-04-09T07:12:11;14.80;;;9.02;;
70126;SDS011;57491;42.694;23.314;2023-04-09T07:14:38;15.02;;;9.57;;
70126;SDS011;57491;42.694;23.314;2023-04-09T07:17:06;17.37;;;11.43;;
70126;SDS011;57491;42.694;23.314;2023-04-09T07:19:33;14.93;;;10.25;;
70126;SDS011;57491;42.694;23.314;2023-04-09T07:22:00;17.45;;;10.25;;
70126;SDS011;57491;42.694;23.314;2023-04-09T07:24:27;15.85;;;10.38;;
70126;SDS011;57491;42.694;23.314;2023-04-09T07:26:54;12.80;;;8.68;;
70126;SDS011;57491;42.694;23.314;2023-04-09T07:29:22;16.20;;;10.80;;
70126;SDS011;57491;42.694;23.314;2023-04-09T07:31:49;16.92;;;10.52;;
70126;SDS011;57491;42.694;23.314;2023-04-09T07:34:16;17.65;;;10.98;;
70126;SDS011;57491;42.694;23.314;2023-04-09T07:36:43;18.27;;;10.40;;
70126;SDS011;57491;42.694;23.314;2023-04-09T07:39:10;14.93;;;10.35;;
70126;SDS011;57491;42.694;23.314;2023-04-09T07:41:37;16.00;;;9.73;;
70126;SDS011;57491;42.694;23.314;2023-04-09T07:44:05;17.08;;;10.30;;
70126;SDS011;57491;42.694;23.314;2023-04-09T07:46:33;13.32;;;8.63;;
70126;SDS011;57491;42.694;23.314;2023-04-09T07:49:00;10.73;;;7.25;;
70126;SDS011;57491;42.694;23.314;2023-04-09T07:51:27;13.77;;;9.03;;
70126;SDS011;57491;42.694;23.314;2023-04-09T07:53:55;12.30;;;7.68;;
70126;SDS011;57491;42.694;23.314;2023-04-09T07:56:23;12.05;;;8.85;;
70126;SDS011;57491;42.694;23.314;2023-04-09T07:58:50;13.40;;;8.23;;
70126;SDS011;57491;42.694;23.314;2023-04-09T08:01:17;12.60;;;7.93;;
70126;SDS011;57491;42.694;23.314;2023-04-09T08:03:47;12.13;;;8.00;;
70126;SDS011;57491;42.694;23.314;2023-04-09T08:06:14;12.15;;;8.00;;
70126;SDS011;57491;42.694;23.314;2023-04-09T08:08:41;15.00;;;9.17;;
70126;SDS011;57491;42.694;23.314;2023-04-09T08:11:09;13.18;;;7.93;;
70126;SDS011;57491;42.694;23.314;2023-04-09T08:13:36;13.68;;;8.82;;
70126;SDS011;57491;42.694;23.314;2023-04-09T08:16:03;13.80;;;8.43;;
70126;SDS011;57491;42.694;23.314;2023-04-09T08:18:30;22.38;;;10.43;;
70126;SDS011;57491;42.694;23.314;2023-04-09T08:21:02;15.67;;;10.33;;
70126;SDS011;57491;42.694;23.314;2023-04-09T08:23:30;16.23;;;10.57;;
70126;SDS011;57491;42.694;23.314;2023-04-09T08:25:57;15.48;;;9.85;;
70126;SDS011;57491;42.694;23.314;2023-04-09T08:28:24;12.45;;;8.18;;
70126;SDS011;57491;42.694;23.314;2023-04-09T08:30:51;15.68;;;10.85;;
70126;SDS011;57491;42.694;23.314;2023-04-09T08:33:18;15.63;;;9.45;;
70126;SDS011;57491;42.694;23.314;2023-04-09T08:35:45;15.50;;;9.63;;
70126;SDS011;57491;42.694;23.314;2023-04-09T08:38:14;15.85;;;8.95;;
70126;SDS011;57491;42.694;23.314;2023-04-09T08:40:41;16.05;;;10.40;;
70126;SDS011;57491;42.694;23.314;2023-04-09T08:43:08;11.93;;;7.90;;
70126;SDS011;57491;42.694;23.314;2023-04-09T08:45:40;10.90;;;7.38;;
70126;SDS011;57491;42.694;23.314;2023-04-09T08:48:07;16.00;;;9.67;;
70126;SDS011;57491;42.694;23.314;2023-04-09T08:50:35;16.17;;;8.90;;
70126;SDS011;57491;42.694;23.314;2023-04-09T08:53:02;12.23;;;8.68;;
70126;SDS011;57491;42.694;23.314;2023-04-09T08:55:33;12.35;;;8.23;;
70126;SDS011;57491;42.694;23.314;2023-04-09T08:58:03;13.25;;;9.07;;
70126;SDS011;57491;42.694;23.314;2023-04-09T09:00:31;12.25;;;9.05;;
70126;SDS011;57491;42.694;23.314;2023-04-09T09:03:02;11.35;;;8.30;;
70126;SDS011;57491;42.694;23.314;2023-04-09T09:05:37;12.98;;;8.85;;
70126;SDS011;57491;42.694;23.314;2023-04-09T09:08:05;16.38;;;10.35;;
70126;SDS011;57491;42.694;23.314;2023-04-09T09:10:38;13.65;;;9.02;;
70126;SDS011;57491;42.694;23.314;2023-04-09T09:13:15;13.10;;;8.95;;
70126;SDS011;57491;42.694;23.314;2023-04-09T09:15:43;17.57;;;9.37;;
70126;SDS011;57491;42.694;23.314;2023-04-09T09:18:12;14.65;;;9.38;;
70126;SDS011;57491;42.694;23.314;2023-04-09T09:20:39;12.35;;;9.15;;
70126;SDS011;57491;42.694;23.314;2023-04-09T09:23:06;14.82;;;9.23;;
70126;SDS011;57491;42.694;23.314;2023-04-09T09:25:38;13.20;;;9.15;;
70126;SDS011;57491;42.694;23.314;2023-04-09T09:28:06;16.52;;;10.10;;
70126;SDS011;57491;42.694;23.314;2023-04-09T09:30:34;15.07;;;9.90;;
70126;SDS011;57491;42.694;23.314;2023-04-09T09:33:05;14.18;;;9.32;;
70126;SDS011;57491;42.694;23.314;2023-04-09T09:35:46;11.10;;;8.57;;
70126;SDS011;57491;42.694;23.314;2023-04-09T09:38:14;9.80;;;7.00;;
70126;SDS011;57491;42.694;23.314;2023-04-09T09:40:43;13.50;;;8.65;;
70126;SDS011;57491;42.694;23.314;2023-04-09T09:43:11;11.98;;;8.02;;
70126;SDS011;57491;42.694;23.314;2023-04-09T09:45:38;11.07;;;8.15;;
70126;SDS011;57491;42.694;23.314;2023-04-09T09:48:06;11.77;;;8.40;;
70126;SDS011;57491;42.694;23.314;2023-04-09T09:50:36;16.42;;;9.45;;
70126;SDS011;57491;42.694;23.314;2023-04-09T09:53:06;11.10;;;8.45;;
70126;SDS011;57491;42.694;23.314;2023-04-09T09:55:36;11.55;;;8.43;;
70126;SDS011;57491;42.694;23.314;2023-04-09T09:58:09;13.10;;;8.85;;
70126;SDS011;57491;42.694;23.314;2023-04-09T10:00:41;14.95;;;9.40;;
70126;SDS011;57491;42.694;23.314;2023-04-09T10:03:11;10.80;;;7.47;;
70126;SDS011;57491;42.694;23.314;2023-04-09T10:05:41;13.35;;;8.02;;
70126;SDS011;57491;42.694;23.314;2023-04-09T10:08:10;12.85;;;8.98;;
70126;SDS011;57491;42.694;23.314;2023-04-09T10:10:38;9.32;;;7.80;;
70126;SDS011;57491;42.694;23.314;2023-04-09T10:13:11;9.65;;;7.18;;
70126;SDS011;57491;42.694;23.314;2023-04-09T10:15:41;11.00;;;7.60;;
70126;SDS011;57491;42.694;23.314;2023-04-09T10:18:10;10.15;;;7.65;;
70126;SDS011;57491;42.694;23.314;2023-04-09T10:20:38;9.00;;;7.80;;
70126;SDS011;57491;42.694;23.314;2023-04-09T10:23:10;8.88;;;7.40;;
70126;SDS011;57491;42.694;23.314;2023-04-09T10:25:45;11.55;;;7.95;;
70126;SDS011;57491;42.694;23.314;2023-04-09T10:28:15;10.50;;;8.35;;
70126;SDS011;57491;42.694;23.314;2023-04-09T10:30:43;8.57;;;6.57;;
70126;SDS011;57491;42.694;23.314;2023-04-09T10:33:11;9.30;;;7.40;;
70126;SDS011;57491;42.694;23.314;2023-04-09T10:35:39;8.85;;;7.18;;
70126;SDS011;57491;42.694;23.314;2023-04-09T10:38:08;8.50;;;7.03;;
70126;SDS011;57491;42.694;23.314;2023-04-09T10:40:39;9.32;;;7.32;;
70126;SDS011;57491;42.694;23.314;2023-04-09T10:43:07;9.75;;;7.60;;
70126;SDS011;57491;42.694;23.314;2023-04-09T10:45:40;9.35;;;7.15;;
70126;SDS011;57491;42.694;23.314;2023-04-09T10:48:11;10.40;;;7.93;;
70126;SDS011;57491;42.694;23.314;2023-04-09T10:50:41;9.68;;;7.25;;
70126;SDS011;57491;42.694;23.314;2023-04-09T10:53:20;10.65;;;7.70;;
70126;SDS011;57491;42.694;23.314;2023-04-09T10:55:49;11.10;;;6.90;;
70126;SDS011;57491;42.694;23.314;2023-04-09T10:58:17;9.18;;;6.80;;
70126;SDS011;57491;42.694;23.314;2023-04-09T11:00:47;7.93;;;6.65;;
70126;SDS011;57491;42.694;23.314;2023-04-09T11:03:22;9.52;;;6.72;;
70126;SDS011;57491;42.694;23.314;2023-04-09T11:05:53;8.82;;;6.43;;
70126;SDS011;57491;42.694;23.314;2023-04-09T11:08:26;10.13;;;6.63;;
70126;SDS011;57491;42.694;23.314;2023-04-09T11:10:54;10.02;;;7.00;;
70126;SDS011;57491;42.694;23.314;2023-04-09T11:13:23;8.45;;;6.88;;
70126;SDS011;57491;42.694;23.314;2023-04-09T11:15:52;10.90;;;7.30;;
70126;SDS011;57491;42.694;23.314;2023-04-09T11:18:20;8.30;;;6.53;;
70126;SDS011;57491;42.694;23.314;2023-04-09T11:20:48;9.82;;;7.15;;
70126;SDS011;57491;42.694;23.314;2023-04-09T11:23:16;8.23;;;6.27;;
70126;SDS011;57491;42.694;23.314;2023-04-09T11:25:46;8.20;;;6.07;;
70126;SDS011;57491;42.694;23.314;2023-04-09T11:28:15;10.18;;;7.65;;
70126;SDS011;57491;42.694;23.314;2023-04-09T11:30:42;9.35;;;7.30;;
70126;SDS011;57491;42.694;23.314;2023-04-09T11:33:12;8.52;;;6.43;;
70126;SDS011;57491;42.694;23.314;2023-04-09T11:35:39;10.40;;;6.75;;
70126;SDS011;57491;42.694;23.314;2023-04-09T11:38:06;10.07;;;6.88;;
70126;SDS011;57491;42.694;23.314;2023-04-09T11:40:34;10.57;;;7.10;;
70126;SDS011;57491;42.694;23.314;2023-04-09T11:43:02;11.05;;;7.30;;
70126;SDS011;57491;42.694;23.314;2023-04-09T11:45:29;8.13;;;6.55;;
70126;SDS011;57491;42.694;23.314;2023-04-09T11:47:57;11.10;;;7.82;;
70126;SDS011;57491;42.694;23.314;2023-04-09T11:50:26;9.63;;;7.20;;
70126;SDS011;57491;42.694;23.314;2023-04-09T11:52:53;9.68;;;6.68;;
70126;SDS011;57491;42.694;23.314;2023-04-09T11:55:21;9.38;;;6.80;;
70126;SDS011;57491;42.694;23.314;2023-04-09T11:57:50;9.68;;;6.75;;
70126;SDS011;57491;42.694;23.314;2023-04-09T12:00:19;8.98;;;7.07;;
70126;SDS011;57491;42.694;23.314;2023-04-09T12:02:47;11.40;;;7.68;;
70126;SDS011;57491;42.694;23.314;2023-04-09T12:05:20;9.15;;;7.15;;
70126;SDS011;57491;42.694;23.314;2023-04-09T12:07:56;9.27;;;6.72;;
70126;SDS011;57491;42.694;23.314;2023-04-09T12:10:25;9.93;;;6.97;;
70126;SDS011;57491;42.694;23.314;2023-04-09T12:12:53;9.73;;;7.53;;
70126;SDS011;57491;42.694;23.314;2023-04-09T12:15:21;7.78;;;6.47;;
70126;SDS011;57491;42.694;23.314;2023-04-09T12:17:49;9.13;;;6.72;;
70126;SDS011;57491;42.694;23.314;2023-04-09T12:20:27;8.57;;;6.60;;
70126;SDS011;57491;42.694;23.314;2023-04-09T12:22:57;7.35;;;5.93;;
70126;SDS011;57491;42.694;23.314;2023-04-09T12:25:27;12.13;;;6.95;;
70126;SDS011;57491;42.694;23.314;2023-04-09T12:27:54;9.35;;;7.32;;
70126;SDS011;57491;42.694;23.314;2023-04-09T12:30:22;8.00;;;6.10;;
70126;SDS011;57491;42.694;23.314;2023-04-09T12:32:50;7.80;;;6.25;;
70126;SDS011;57491;42.694;23.314;2023-04-09T12:35:17;8.40;;;6.13;;
70126;SDS011;57491;42.694;23.314;2023-04-09T12:37:44;8.45;;;6.68;;
70126;SDS011;57491;42.694;23.314;2023-04-09T12:40:13;7.63;;;6.38;;
70126;SDS011;57491;42.694;23.314;2023-04-09T12:42:40;7.82;;;6.57;;
70126;SDS011;57491;42.694;23.314;2023-04-09T12:45:08;8.20;;;6.53;;
70126;SDS011;57491;42.694;23.314;2023-04-09T12:47:36;9.15;;;6.82;;
70126;SDS011;57491;42.694;23.314;2023-04-09T12:50:05;10.68;;;6.80;;
70126;SDS011;57491;42.694;23.314;2023-04-09T12:52:33;8.27;;;6.60;;
70126;SDS011;57491;42.694;23.314;2023-04-09T12:55:01;6.72;;;5.97;;
70126;SDS011;57491;42.694;23.314;2023-04-09T12:57:30;7.80;;;6.30;;
70126;SDS011;57491;42.694;23.314;2023-04-09T12:59:57;8.25;;;6.80;;
70126;SDS011;57491;42.694;23.314;2023-04-09T13:02:24;9.30;;;6.73;;
70126;SDS011;57491;42.694;23.314;2023-04-09T13:04:52;7.13;;;6.20;;
70126;SDS011;57491;42.694;23.314;2023-04-09T13:07:19;6.82;;;5.40;;
70126;SDS011;57491;42.694;23.314;2023-04-09T13:09:47;9.55;;;6.32;;
70126;SDS011;57491;42.694;23.314;2023-04-09T13:14:45;7.88;;;5.95;;
70126;SDS011;57491;42.694;23.314;2023-04-09T13:17:12;7.68;;;6.10;;
70126;SDS011;57491;42.694;23.314;2023-04-09T13:19:40;12.27;;;8.90;;
70126;SDS011;57491;42.694;23.314;2023-04-09T13:22:07;11.55;;;6.30;;
70126;SDS011;57491;42.694;23.314;2023-04-09T13:24:34;8.83;;;6.10;;
70126;SDS011;57491;42.694;23.314;2023-04-09T13:27:01;8.07;;;6.13;;
70126;SDS011;57491;42.694;23.314;2023-04-09T13:29:28;6.90;;;5.53;;
70126;SDS011;57491;42.694;23.314;2023-04-09T13:31:57;6.90;;;5.60;;
70126;SDS011;57491;42.694;23.314;2023-04-09T13:34:26;7.22;;;5.10;;
70126;SDS011;57491;42.694;23.314;2023-04-09T13:36:53;6.57;;;5.20;;
70126;SDS011;57491;42.694;23.314;2023-04-09T13:39:20;5.87;;;4.90;;
70126;SDS011;57491;42.694;23.314;2023-04-09T13:41:47;8.70;;;6.63;;
70126;SDS011;57491;42.694;23.314;2023-04-09T13:44:15;8.97;;;5.93;;
70126;SDS011;57491;42.694;23.314;2023-04-09T13:46:42;8.70;;;6.73;;
70126;SDS011;57491;42.694;23.314;2023-04-09T13:49:10;10.85;;;6.80;;
70126;SDS011;57491;42.694;23.314;2023-04-09T13:51:38;8.63;;;6.63;;
70126;SDS011;57491;42.694;23.314;2023-04-09T13:54:05;8.10;;;5.43;;
70126;SDS011;57491;42.694;23.314;2023-04-09T13:56:33;9.30;;;7.18;;
70126;SDS011;57491;42.694;23.314;2023-04-09T13:59:00;12.45;;;9.07;;
70126;SDS011;57491;42.694;23.314;2023-04-09T14:01:27;8.73;;;6.93;;
70126;SDS011;57491;42.694;23.314;2023-04-09T14:06:23;7.05;;;6.15;;
70126;SDS011;57491;42.694;23.314;2023-04-09T14:08:50;10.05;;;7.47;;
70126;SDS011;57491;42.694;23.314;2023-04-09T14:11:17;12.73;;;7.45;;
70126;SDS011;57491;42.694;23.314;2023-04-09T14:13:45;14.13;;;7.63;;
70126;SDS011;57491;42.694;23.314;2023-04-09T14:16:12;10.13;;;8.05;;
70126;SDS011;57491;42.694;23.314;2023-04-09T14:18:39;11.68;;;8.40;;
70126;SDS011;57491;42.694;23.314;2023-04-09T14:21:07;12.63;;;8.07;;
70126;SDS011;57491;42.694;23.314;2023-04-09T14:23:37;13.35;;;8.73;;
70126;SDS011;57491;42.694;23.314;2023-04-09T14:26:04;14.82;;;10.27;;
70126;SDS011;57491;42.694;23.314;2023-04-09T14:28:32;15.50;;;11.25;;
70126;SDS011;57491;42.694;23.314;2023-04-09T14:30:59;20.83;;;12.30;;
70126;SDS011;57491;42.694;23.314;2023-04-09T14:33:26;17.27;;;12.07;;
70126;SDS011;57491;42.694;23.314;2023-04-09T14:35:53;14.88;;;10.57;;